sensor_id;sensor_type;location;lat;lon;timestamp;pressure;altitude;pressure_sealevel;temperature;humidity
44926;BME280;30662;51.210;7.656;2023-03-04T00:01:17;149270.28;;;1.81;100.00
44926;BME280;30662;51.210;7.656;2023-03-04T00:03:42;149247.63;;;1.72;100.00
44926;BME280;30662;51.210;7.656;2023-03-04T00:06:08;149268.97;;;1.81;100.00
44926;BME280;30662;51.210;7.656;2023-03-04T00:08:34;149240.09;;;1.69;100.00
44926;BME280;30662;51.210;7.656;2023-03-04T00:11:00;149233.78;;;1.66;100.00
44926;BME280;30662;51.210;7.656;2023-03-04T00:13:26;149247.63;;;1.72;100.00
44926;BME280;30662;51.210;7.656;2023-03-04T00:15:52;149242.59;;;1.70;100.00
44926;BME280;30662;51.210;7.656;2023-03-04T00:18:18;149223.75;;;1.62;100.00
44926;BME280;30662;51.210;7.656;2023-03-04T00:20:45;149232.50;;;1.66;100.00
44926;BME280;30662;51.210;7.656;2023-03-04T00:23:12;149227.50;;;1.64;100.00
44926;BME280;30662;51.210;7.656;2023-03-04T00:25:38;149206.13;;;1.55;100.00
44926;BME280;30662;51.210;7.656;2023-03-04T00:28:04;149216.22;;;1.59;100.00
44926;BME280;30662;51.210;7.656;2023-03-04T00:30:30;149213.66;;;1.58;100.00
44926;BME280;30662;51.210;7.656;2023-03-04T00:32:56;149236.31;;;1.68;100.00
44926;BME280;30662;51.210;7.656;2023-03-04T00:35:22;149219.97;;;1.61;100.00
44926;BME280;30662;51.210;7.656;2023-03-04T00:37:48;149223.75;;;1.62;100.00
44926;BME280;30662;51.210;7.656;2023-03-04T00:40:13;149240.09;;;1.69;100.00
44926;BME280;30662;51.210;7.656;2023-03-04T00:42:39;149219.97;;;1.61;100.00
44926;BME280;30662;51.210;7.656;2023-03-04T00:45:06;149227.50;;;1.64;100.00
44926;BME280;30662;51.210;7.656;2023-03-04T00:47:32;149247.63;;;1.72;100.00
44926;BME280;30662;51.210;7.656;2023-03-04T00:49:57;149233.78;;;1.66;100.00
44926;BME280;30662;51.210;7.656;2023-03-04T00:52:23;149218.72;;;1.60;100.00
44926;BME280;30662;51.210;7.656;2023-03-04T00:54:49;149231.25;;;1.65;100.00
44926;BME280;30662;51.210;7.656;2023-03-04T00:57:15;149247.63;;;1.72;100.00
44926;BME280;30662;51.210;7.656;2023-03-04T00:59:41;149256.44;;;1.76;100.00
44926;BME280;30662;51.210;7.656;2023-03-04T01:02:09;149275.28;;;1.83;100.00
44926;BME280;30662;51.210;7.656;2023-03-04T01:04:35;149261.44;;;1.78;100.00
44926;BME280;30662;51.210;7.656;2023-03-04T01:07:01;149250.13;;;1.73;100.00
44926;BME280;30662;51.210;7.656;2023-03-04T01:09:27;149231.25;;;1.65;100.00
44926;BME280;30662;51.210;7.656;2023-03-04T01:11:53;149242.59;;;1.70;100.00
44926;BME280;30662;51.210;7.656;2023-03-04T01:14:19;149235.06;;;1.67;100.00
44926;BME280;30662;51.210;7.656;2023-03-04T01:16:45;149245.09;;;1.71;100.00
44926;BME280;30662;51.210;7.656;2023-03-04T01:19:11;149232.50;;;1.66;100.00
44926;BME280;30662;51.210;7.656;2023-03-04T01:21:37;149231.25;;;1.65;100.00
44926;BME280;30662;51.210;7.656;2023-03-04T01:24:03;149223.75;;;1.62;100.00
44926;BME280;30662;51.210;7.656;2023-03-04T01:26:29;149227.50;;;1.64;100.00
44926;BME280;30662;51.210;7.656;2023-03-04T01:28:55;149243.84;;;1.71;100.00
44926;BME280;30662;51.210;7.656;2023-03-04T01:31:20;149219.97;;;1.61;100.00
44926;BME280;30662;51.210;7.656;2023-03-04T01:33:46;149257.69;;;1.76;100.00
44926;BME280;30662;51.210;7.656;2023-03-04T01:36:12;149233.78;;;1.66;100.00
44926;BME280;30662;51.210;7.656;2023-03-04T01:38:38;149217.47;;;1.60;100.00
44926;BME280;30662;51.210;7.656;2023-03-04T01:41:04;149211.16;;;1.57;100.00
44926;BME280;30662;51.210;7.656;2023-03-04T01:43:34;149191.03;;;1.49;100.00
44926;BME280;30662;51.210;7.656;2023-03-04T01:46:01;149197.31;;;1.52;100.00
44926;BME280;30662;51.210;7.656;2023-03-04T01:48:33;149240.09;;;1.69;100.00
44926;BME280;30662;51.210;7.656;2023-03-04T01:51:03;149218.72;;;1.60;100.00
44926;BME280;30662;51.210;7.656;2023-03-04T01:53:29;149228.75;;;1.64;100.00
44926;BME280;30662;51.210;7.656;2023-03-04T01:56:00;149198.63;;;1.52;100.00
44926;BME280;30662;51.210;7.656;2023-03-04T01:58:29;149206.13;;;1.55;100.00
44926;BME280;30662;51.210;7.656;2023-03-04T02:00:56;149204.88;;;1.55;100.00
44926;BME280;30662;51.210;7.656;2023-03-04T02:03:23;149213.66;;;1.58;100.00
44926;BME280;30662;51.210;7.656;2023-03-04T02:05:51;149218.72;;;1.60;100.00
44926;BME280;30662;51.210;7.656;2023-03-04T02:08:19;149237.56;;;1.68;100.00
44926;BME280;30662;51.210;7.656;2023-03-04T02:10:46;149218.72;;;1.60;100.00
44926;BME280;30662;51.210;7.656;2023-03-04T02:13:12;149202.38;;;1.54;100.00
44926;BME280;30662;51.210;7.656;2023-03-04T02:15:39;149198.63;;;1.52;100.00
44926;BME280;30662;51.210;7.656;2023-03-04T02:18:18;149194.81;;;1.51;100.00
44926;BME280;30662;51.210;7.656;2023-03-04T02:24:08;149199.88;;;1.53;100.00
44926;BME280;30662;51.210;7.656;2023-03-04T02:26:40;149219.97;;;1.61;100.00
44926;BME280;30662;51.210;7.656;2023-03-04T02:29:11;149225.00;;;1.63;100.00
44926;BME280;30662;51.210;7.656;2023-03-04T02:31:45;149222.47;;;1.62;100.00
44926;BME280;30662;51.210;7.656;2023-03-04T02:34:15;149197.31;;;1.52;100.00
44926;BME280;30662;51.210;7.656;2023-03-04T02:36:43;149191.03;;;1.49;100.00
44926;BME280;30662;51.210;7.656;2023-03-04T02:41:47;149230.00;;;1.65;100.00
44926;BME280;30662;51.210;7.656;2023-03-04T02:44:24;149222.47;;;1.62;100.00
44926;BME280;30662;51.210;7.656;2023-03-04T02:46:52;149245.09;;;1.71;100.00
44926;BME280;30662;51.210;7.656;2023-03-04T02:49:19;149255.19;;;1.75;100.00
44926;BME280;30662;51.210;7.656;2023-03-04T02:51:45;149228.75;;;1.64;100.00
44926;BME280;30662;51.210;7.656;2023-03-04T02:54:20;149214.91;;;1.59;100.00
44926;BME280;30662;51.210;7.656;2023-03-04T02:56:49;149222.47;;;1.62;100.00
44926;BME280;30662;51.210;7.656;2023-03-04T02:59:17;149240.09;;;1.69;100.00
44926;BME280;30662;51.210;7.656;2023-03-04T03:01:43;149237.56;;;1.68;100.00
44926;BME280;30662;51.210;7.656;2023-03-04T03:04:11;149240.09;;;1.69;100.00
44926;BME280;30662;51.210;7.656;2023-03-04T03:06:38;149231.25;;;1.65;100.00
44926;BME280;30662;51.210;7.656;2023-03-04T03:09:06;149233.78;;;1.66;100.00
44926;BME280;30662;51.210;7.656;2023-03-04T03:11:41;149255.19;;;1.75;100.00
44926;BME280;30662;51.210;7.656;2023-03-04T03:14:07;149227.50;;;1.64;100.00
44926;BME280;30662;51.210;7.656;2023-03-04T03:16:33;149235.06;;;1.67;100.00
44926;BME280;30662;51.210;7.656;2023-03-04T03:18:59;149227.50;;;1.64;100.00
44926;BME280;30662;51.210;7.656;2023-03-04T03:21:25;149245.09;;;1.71;100.00
44926;BME280;30662;51.210;7.656;2023-03-04T03:23:51;149227.50;;;1.64;100.00
44926;BME280;30662;51.210;7.656;2023-03-04T03:26:18;149231.25;;;1.65;100.00
44926;BME280;30662;51.210;7.656;2023-03-04T03:28:44;149261.44;;;1.78;100.00
44926;BME280;30662;51.210;7.656;2023-03-04T03:31:10;149241.34;;;1.70;100.00
44926;BME280;30662;51.210;7.656;2023-03-04T03:33:36;149257.69;;;1.76;100.00
44926;BME280;30662;51.210;7.656;2023-03-04T03:36:02;149250.13;;;1.73;100.00
44926;BME280;30662;51.210;7.656;2023-03-04T03:38:28;149232.50;;;1.66;100.00
44926;BME280;30662;51.210;7.656;2023-03-04T03:40:54;149228.75;;;1.64;100.00
44926;BME280;30662;51.210;7.656;2023-03-04T03:43:20;149240.09;;;1.69;100.00
44926;BME280;30662;51.210;7.656;2023-03-04T03:45:46;149211.16;;;1.57;100.00
44926;BME280;30662;51.210;7.656;2023-03-04T03:48:12;149211.16;;;1.57;100.00
44926;BME280;30662;51.210;7.656;2023-03-04T03:50:38;149198.63;;;1.52;100.00
44926;BME280;30662;51.210;7.656;2023-03-04T03:53:04;149297.91;;;1.92;100.00
44926;BME280;30662;51.210;7.656;2023-03-04T03:55:30;149255.19;;;1.75;100.00
44926;BME280;30662;51.210;7.656;2023-03-04T03:57:56;149227.50;;;1.64;100.00
44926;BME280;30662;51.210;7.656;2023-03-04T04:00:22;149251.38;;;1.74;100.00
44926;BME280;30662;51.210;7.656;2023-03-04T04:02:48;149223.75;;;1.62;100.00
44926;BME280;30662;51.210;7.656;2023-03-04T04:05:14;149225.00;;;1.63;100.00
44926;BME280;30662;51.210;7.656;2023-03-04T04:07:40;149243.84;;;1.71;100.00
44926;BME280;30662;51.210;7.656;2023-03-04T04:10:07;149235.06;;;1.67;100.00
44926;BME280;30662;51.210;7.656;2023-03-04T04:12:33;149232.50;;;1.66;100.00
44926;BME280;30662;51.210;7.656;2023-03-04T04:14:59;149252.69;;;1.74;100.00
44926;BME280;30662;51.210;7.656;2023-03-04T04:17:25;149223.75;;;1.62;100.00
44926;BME280;30662;51.210;7.656;2023-03-04T04:19:51;149248.88;;;1.73;100.00
44926;BME280;30662;51.210;7.656;2023-03-04T04:22:19;149211.16;;;1.57;100.00
44926;BME280;30662;51.210;7.656;2023-03-04T04:24:46;149217.47;;;1.60;100.00
44926;BME280;30662;51.210;7.656;2023-03-04T04:27:12;149214.91;;;1.59;100.00
44926;BME280;30662;51.210;7.656;2023-03-04T04:29:39;149240.09;;;1.69;100.00
44926;BME280;30662;51.210;7.656;2023-03-04T04:32:05;149251.38;;;1.74;100.00
44926;BME280;30662;51.210;7.656;2023-03-04T04:34:31;149222.47;;;1.62;100.00
44926;BME280;30662;51.210;7.656;2023-03-04T04:36:56;149225.00;;;1.63;100.00
44926;BME280;30662;51.210;7.656;2023-03-04T04:39:22;149222.47;;;1.62;100.00
44926;BME280;30662;51.210;7.656;2023-03-04T04:41:48;149218.72;;;1.60;100.00
44926;BME280;30662;51.210;7.656;2023-03-04T04:44:14;149223.75;;;1.62;100.00
44926;BME280;30662;51.210;7.656;2023-03-04T04:46:40;149235.06;;;1.67;100.00
44926;BME280;30662;51.210;7.656;2023-03-04T04:49:07;149202.38;;;1.54;100.00
44926;BME280;30662;51.210;7.656;2023-03-04T04:51:35;149213.66;;;1.58;100.00
44926;BME280;30662;51.210;7.656;2023-03-04T04:54:02;149203.63;;;1.54;100.00
44926;BME280;30662;51.210;7.656;2023-03-04T04:56:28;149209.91;;;1.57;100.00
44926;BME280;30662;51.210;7.656;2023-03-04T04:58:59;149245.09;;;1.71;100.00
44926;BME280;30662;51.210;7.656;2023-03-04T05:01:26;149214.91;;;1.59;100.00
44926;BME280;30662;51.210;7.656;2023-03-04T05:03:52;149248.88;;;1.73;100.00
44926;BME280;30662;51.210;7.656;2023-03-04T05:06:21;149243.84;;;1.71;100.00
44926;BME280;30662;51.210;7.656;2023-03-04T05:08:48;149242.59;;;1.70;100.00
44926;BME280;30662;51.210;7.656;2023-03-04T05:11:15;149243.84;;;1.71;100.00
44926;BME280;30662;51.210;7.656;2023-03-04T05:13:42;149247.63;;;1.72;100.00
44926;BME280;30662;51.210;7.656;2023-03-04T05:16:08;149250.13;;;1.73;100.00
44926;BME280;30662;51.210;7.656;2023-03-04T05:18:34;149236.31;;;1.68;100.00
44926;BME280;30662;51.210;7.656;2023-03-04T05:21:02;149246.34;;;1.72;100.00
44926;BME280;30662;51.210;7.656;2023-03-04T05:23:30;149268.97;;;1.81;100.00
44926;BME280;30662;51.210;7.656;2023-03-04T05:25:57;149251.38;;;1.74;100.00
44926;BME280;30662;51.210;7.656;2023-03-04T05:28:23;149245.09;;;1.71;100.00
44926;BME280;30662;51.210;7.656;2023-03-04T05:30:49;149255.19;;;1.75;100.00
44926;BME280;30662;51.210;7.656;2023-03-04T05:33:16;149251.38;;;1.74;100.00
44926;BME280;30662;51.210;7.656;2023-03-04T05:35:44;149227.50;;;1.64;100.00
44926;BME280;30662;51.210;7.656;2023-03-04T05:38:18;149203.63;;;1.54;100.00
44926;BME280;30662;51.210;7.656;2023-03-04T05:40:46;149230.00;;;1.65;100.00
44926;BME280;30662;51.210;7.656;2023-03-04T05:43:12;149233.78;;;1.66;100.00
44926;BME280;30662;51.210;7.656;2023-03-04T05:45:39;149248.88;;;1.73;100.00
44926;BME280;30662;51.210;7.656;2023-03-04T05:48:05;149252.69;;;1.74;100.00
44926;BME280;30662;51.210;7.656;2023-03-04T05:50:32;149218.72;;;1.60;100.00
44926;BME280;30662;51.210;7.656;2023-03-04T05:52:59;149240.09;;;1.69;100.00
44926;BME280;30662;51.210;7.656;2023-03-04T05:55:25;149222.47;;;1.62;100.00
44926;BME280;30662;51.210;7.656;2023-03-04T05:57:52;149226.25;;;1.63;100.00
44926;BME280;30662;51.210;7.656;2023-03-04T06:00:18;149209.91;;;1.57;100.00
44926;BME280;30662;51.210;7.656;2023-03-04T06:02:44;149230.00;;;1.65;100.00
44926;BME280;30662;51.210;7.656;2023-03-04T06:05:12;149241.34;;;1.70;100.00
44926;BME280;30662;51.210;7.656;2023-03-04T06:07:38;149228.75;;;1.64;100.00
44926;BME280;30662;51.210;7.656;2023-03-04T06:10:05;149225.00;;;1.63;100.00
44926;BME280;30662;51.210;7.656;2023-03-04T06:12:31;149230.00;;;1.65;100.00
44926;BME280;30662;51.210;7.656;2023-03-04T06:14:57;149218.72;;;1.60;100.00
44926;BME280;30662;51.210;7.656;2023-03-04T06:17:23;149240.09;;;1.69;100.00
44926;BME280;30662;51.210;7.656;2023-03-04T06:19:49;149248.88;;;1.73;100.00
44926;BME280;30662;51.210;7.656;2023-03-04T06:22:14;149233.78;;;1.66;100.00
44926;BME280;30662;51.210;7.656;2023-03-04T06:24:40;149255.19;;;1.75;100.00
44926;BME280;30662;51.210;7.656;2023-03-04T06:27:06;149243.84;;;1.71;100.00
44926;BME280;30662;51.210;7.656;2023-03-04T06:29:32;149258.94;;;1.77;100.00
44926;BME280;30662;51.210;7.656;2023-03-04T06:31:58;149268.97;;;1.81;100.00
44926;BME280;30662;51.210;7.656;2023-03-04T06:34:24;149261.44;;;1.78;100.00
44926;BME280;30662;51.210;7.656;2023-03-04T06:36:50;149266.47;;;1.80;100.00
44926;BME280;30662;51.210;7.656;2023-03-04T06:39:16;149294.16;;;1.91;100.00
44926;BME280;30662;51.210;7.656;2023-03-04T06:41:42;149266.47;;;1.80;100.00
44926;BME280;30662;51.210;7.656;2023-03-04T06:44:08;149248.88;;;1.73;100.00
44926;BME280;30662;51.210;7.656;2023-03-04T06:46:34;149238.84;;;1.69;100.00
44926;BME280;30662;51.210;7.656;2023-03-04T06:49:00;149257.69;;;1.76;100.00
44926;BME280;30662;51.210;7.656;2023-03-04T06:51:26;149252.69;;;1.74;100.00
44926;BME280;30662;51.210;7.656;2023-03-04T06:53:52;149240.09;;;1.69;100.00
44926;BME280;30662;51.210;7.656;2023-03-04T06:56:18;149255.19;;;1.75;100.00
44926;BME280;30662;51.210;7.656;2023-03-04T06:58:44;149261.44;;;1.78;100.00
44926;BME280;30662;51.210;7.656;2023-03-04T07:03:37;149253.94;;;1.75;100.00
44926;BME280;30662;51.210;7.656;2023-03-04T07:06:03;149258.94;;;1.77;100.00
44926;BME280;30662;51.210;7.656;2023-03-04T07:08:29;149265.22;;;1.79;100.00
44926;BME280;30662;51.210;7.656;2023-03-04T07:10:55;149251.38;;;1.74;100.00
44926;BME280;30662;51.210;7.656;2023-03-04T07:13:21;149265.22;;;1.79;100.00
44926;BME280;30662;51.210;7.656;2023-03-04T07:15:47;149262.69;;;1.78;100.00
44926;BME280;30662;51.210;7.656;2023-03-04T07:18:12;149257.69;;;1.76;100.00
44926;BME280;30662;51.210;7.656;2023-03-04T07:20:38;149284.06;;;1.87;100.00
44926;BME280;30662;51.210;7.656;2023-03-04T07:23:04;149281.56;;;1.86;100.00
44926;BME280;30662;51.210;7.656;2023-03-04T07:25:30;149262.69;;;1.78;100.00
44926;BME280;30662;51.210;7.656;2023-03-04T07:27:56;149253.94;;;1.75;100.00
44926;BME280;30662;51.210;7.656;2023-03-04T07:30:22;149265.22;;;1.79;100.00
44926;BME280;30662;51.210;7.656;2023-03-04T07:32:48;149277.81;;;1.84;100.00
44926;BME280;30662;51.210;7.656;2023-03-04T07:35:14;149253.94;;;1.75;100.00
44926;BME280;30662;51.210;7.656;2023-03-04T07:37:40;149262.69;;;1.78;100.00
44926;BME280;30662;51.210;7.656;2023-03-04T07:40:06;149255.19;;;1.75;100.00
44926;BME280;30662;51.210;7.656;2023-03-04T07:42:33;149257.69;;;1.76;100.00
44926;BME280;30662;51.210;7.656;2023-03-04T07:44:59;149277.81;;;1.84;100.00
44926;BME280;30662;51.210;7.656;2023-03-04T07:47:26;149276.53;;;1.84;100.00
44926;BME280;30662;51.210;7.656;2023-03-04T07:49:52;149282.81;;;1.86;100.00
44926;BME280;30662;51.210;7.656;2023-03-04T07:52:19;149276.53;;;1.84;100.00
44926;BME280;30662;51.210;7.656;2023-03-04T07:54:45;149287.88;;;1.88;100.00
44926;BME280;30662;51.210;7.656;2023-03-04T07:57:11;149277.81;;;1.84;100.00
44926;BME280;30662;51.210;7.656;2023-03-04T07:59:36;149304.19;;;1.95;100.00
44926;BME280;30662;51.210;7.656;2023-03-04T08:02:02;149320.53;;;2.02;100.00
44926;BME280;30662;51.210;7.656;2023-03-04T08:04:28;149309.25;;;1.97;100.00
44926;BME280;30662;51.210;7.656;2023-03-04T08:06:54;149310.50;;;1.98;100.00
44926;BME280;30662;51.210;7.656;2023-03-04T08:09:21;149304.19;;;1.95;100.00
44926;BME280;30662;51.210;7.656;2023-03-04T08:11:47;149311.75;;;1.98;100.00
44926;BME280;30662;51.210;7.656;2023-03-04T08:14:13;149340.66;;;2.10;100.00
44926;BME280;30662;51.210;7.656;2023-03-04T08:16:40;149333.13;;;2.07;100.00
44926;BME280;30662;51.210;7.656;2023-03-04T08:19:06;149329.38;;;2.05;100.00
44926;BME280;30662;51.210;7.656;2023-03-04T08:21:32;149329.38;;;2.05;100.00
44926;BME280;30662;51.210;7.656;2023-03-04T08:24:02;149343.22;;;2.11;100.00
44926;BME280;30662;51.210;7.656;2023-03-04T08:26:38;149345.72;;;2.12;100.00
44926;BME280;30662;51.210;7.656;2023-03-04T08:29:07;149355.75;;;2.16;100.00
44926;BME280;30662;51.210;7.656;2023-03-04T08:31:33;149343.22;;;2.11;100.00
44926;BME280;30662;51.210;7.656;2023-03-04T08:34:02;149310.50;;;1.98;100.00
44926;BME280;30662;51.210;7.656;2023-03-04T08:36:28;149345.72;;;2.12;100.00
44926;BME280;30662;51.210;7.656;2023-03-04T08:38:54;149338.16;;;2.09;100.00
44926;BME280;30662;51.210;7.656;2023-03-04T08:41:20;149326.88;;;2.04;100.00
44926;BME280;30662;51.210;7.656;2023-03-04T08:43:47;149318.03;;;2.01;100.00
44926;BME280;30662;51.210;7.656;2023-03-04T08:46:13;149310.50;;;1.98;100.00
44926;BME280;30662;51.210;7.656;2023-03-04T08:48:39;149364.59;;;2.19;100.00
44926;BME280;30662;51.210;7.656;2023-03-04T08:51:09;149390.97;;;2.30;100.00
44926;BME280;30662;51.210;7.656;2023-03-04T08:53:36;149403.56;;;2.35;100.00
44926;BME280;30662;51.210;7.656;2023-03-04T08:56:03;149421.19;;;2.42;100.00
44926;BME280;30662;51.210;7.656;2023-03-04T08:58:29;149424.94;;;2.44;100.00
44926;BME280;30662;51.210;7.656;2023-03-04T09:00:58;149403.56;;;2.35;100.00
44926;BME280;30662;51.210;7.656;2023-03-04T09:03:25;149403.56;;;2.35;100.00
44926;BME280;30662;51.210;7.656;2023-03-04T09:05:51;149465.19;;;2.60;100.00
44926;BME280;30662;51.210;7.656;2023-03-04T09:08:17;149447.59;;;2.53;100.00
44926;BME280;30662;51.210;7.656;2023-03-04T09:10:44;149463.94;;;2.60;100.00
44926;BME280;30662;51.210;7.656;2023-03-04T09:13:11;149457.66;;;2.57;100.00
44926;BME280;30662;51.210;7.656;2023-03-04T09:15:43;149504.25;;;2.76;100.00
44926;BME280;30662;51.210;7.656;2023-03-04T09:18:09;149557.09;;;2.97;100.00
44926;BME280;30662;51.210;7.656;2023-03-04T09:20:35;149577.25;;;3.06;100.00
44926;BME280;30662;51.210;7.656;2023-03-04T09:23:01;149575.97;;;3.05;100.00
44926;BME280;30662;51.210;7.656;2023-03-04T09:25:30;149547.03;;;2.93;100.00
44926;BME280;30662;51.210;7.656;2023-03-04T09:27:56;149554.56;;;2.96;100.00
44926;BME280;30662;51.210;7.656;2023-03-04T09:30:22;149572.16;;;3.03;100.00
44926;BME280;30662;51.210;7.656;2023-03-04T09:32:48;149650.25;;;3.35;100.00
44926;BME280;30662;51.210;7.656;2023-03-04T09:35:14;149686.75;;;3.50;100.00
44926;BME280;30662;51.210;7.656;2023-03-04T09:37:41;149715.69;;;3.62;100.00
44926;BME280;30662;51.210;7.656;2023-03-04T09:40:10;149743.41;;;3.73;100.00
44926;BME280;30662;51.210;7.656;2023-03-04T09:42:47;149750.97;;;3.76;100.00
44926;BME280;30662;51.210;7.656;2023-03-04T09:45:20;149744.69;;;3.73;100.00
44926;BME280;30662;51.210;7.656;2023-03-04T09:47:48;149744.69;;;3.73;100.00
44926;BME280;30662;51.210;7.656;2023-03-04T09:50:16;149674.16;;;3.45;100.00
44926;BME280;30662;51.210;7.656;2023-03-04T09:53:22;149684.25;;;3.49;100.00
44926;BME280;30662;51.210;7.656;2023-03-04T09:55:51;149664.09;;;3.41;100.00
44926;BME280;30662;51.210;7.656;2023-03-04T09:58:30;149698.06;;;3.54;100.00
44926;BME280;30662;51.210;7.656;2023-03-04T10:01:08;149781.19;;;3.88;100.00
44926;BME280;30662;51.210;7.656;2023-03-04T10:03:48;149739.66;;;3.71;100.00
44926;BME280;30662;51.210;7.656;2023-03-04T10:06:19;149729.56;;;3.67;100.00
44926;BME280;30662;51.210;7.656;2023-03-04T10:09:02;149723.28;;;3.65;100.00
44926;BME280;30662;51.210;7.656;2023-03-04T10:11:43;149665.38;;;3.41;100.00
44926;BME280;30662;51.210;7.656;2023-03-04T10:20:04;149652.75;;;3.36;100.00
44926;BME280;30662;51.210;7.656;2023-03-04T10:22:35;149666.63;;;3.42;100.00
44926;BME280;30662;51.210;7.656;2023-03-04T10:25:24;149636.38;;;3.29;100.00
44926;BME280;30662;51.210;7.656;2023-03-04T10:28:00;149641.41;;;3.31;100.00
44926;BME280;30662;51.210;7.656;2023-03-04T10:33:36;149626.31;;;3.25;100.00
44926;BME280;30662;51.210;7.656;2023-03-04T10:39:08;149589.78;;;3.11;100.00
44926;BME280;30662;51.210;7.656;2023-03-04T10:41:36;149583.50;;;3.08;100.00
44926;BME280;30662;51.210;7.656;2023-03-04T10:46:38;149577.25;;;3.06;100.00
44926;BME280;30662;51.210;7.656;2023-03-04T10:49:09;149608.66;;;3.18;100.00
44926;BME280;30662;51.210;7.656;2023-03-04T10:54:30;149647.75;;;3.34;100.00
44926;BME280;30662;51.210;7.656;2023-03-04T10:57:03;149643.91;;;3.32;100.00
44926;BME280;30662;51.210;7.656;2023-03-04T10:59:44;149650.25;;;3.35;100.00
44926;BME280;30662;51.210;7.656;2023-03-04T11:02:33;149642.66;;;3.32;100.00
44926;BME280;30662;51.210;7.656;2023-03-04T11:07:49;149640.16;;;3.31;100.00
44926;BME280;30662;51.210;7.656;2023-03-04T11:10:30;149616.25;;;3.21;100.00
44926;BME280;30662;51.210;7.656;2023-03-04T11:20:59;149621.28;;;3.23;100.00
44926;BME280;30662;51.210;7.656;2023-03-04T11:23:48;149645.19;;;3.33;100.00
44926;BME280;30662;51.210;7.656;2023-03-04T11:26:18;149628.84;;;3.26;100.00
44926;BME280;30662;51.210;7.656;2023-03-04T11:28:57;149621.28;;;3.23;100.00
44926;BME280;30662;51.210;7.656;2023-03-04T11:31:35;149641.41;;;3.31;100.00
44926;BME280;30662;51.210;7.656;2023-03-04T11:37:00;149689.28;;;3.51;100.00
44926;BME280;30662;51.210;7.656;2023-03-04T11:39:54;149701.88;;;3.56;100.00
44926;BME280;30662;51.210;7.656;2023-03-04T11:42:43;149669.13;;;3.43;100.00
44926;BME280;30662;51.210;7.656;2023-03-04T11:45:13;149631.38;;;3.27;100.00
44926;BME280;30662;51.210;7.656;2023-03-04T11:48:07;149611.22;;;3.19;100.00
44926;BME280;30662;51.210;7.656;2023-03-04T11:59:27;149609.97;;;3.19;100.00
44926;BME280;30662;51.210;7.656;2023-03-04T12:02:10;149613.75;;;3.20;100.00
44926;BME280;30662;51.210;7.656;2023-03-04T12:07:19;149612.50;;;3.20;100.00
44926;BME280;30662;51.210;7.656;2023-03-04T12:10:08;149633.88;;;3.28;100.00
44926;BME280;30662;51.210;7.656;2023-03-04T12:21:28;149617.50;;;3.22;100.00
44926;BME280;30662;51.210;7.656;2023-03-04T12:26:50;149642.66;;;3.32;100.00
44926;BME280;30662;51.210;7.656;2023-03-04T12:32:32;149666.63;;;3.42;100.00
44926;BME280;30662;51.210;7.656;2023-03-04T12:35:14;149669.13;;;3.43;100.00
44926;BME280;30662;51.210;7.656;2023-03-04T12:38:51;149709.41;;;3.59;100.00
44926;BME280;30662;51.210;7.656;2023-03-04T12:46:14;149728.31;;;3.67;100.00
44926;BME280;30662;51.210;7.656;2023-03-04T12:52:09;149714.44;;;3.61;100.00
44926;BME280;30662;51.210;7.656;2023-03-04T12:54:49;149723.28;;;3.65;100.00
44926;BME280;30662;51.210;7.656;2023-03-04T12:57:18;149683.00;;;3.48;100.00
44926;BME280;30662;51.210;7.656;2023-03-04T12:59:55;149683.00;;;3.48;100.00
44926;BME280;30662;51.210;7.656;2023-03-04T13:05:17;149683.00;;;3.48;100.00
44926;BME280;30662;51.210;7.656;2023-03-04T13:10:21;149708.16;;;3.58;100.00
44926;BME280;30662;51.210;7.656;2023-03-04T13:12:56;149695.56;;;3.53;100.00
44926;BME280;30662;51.210;7.656;2023-03-04T13:20:32;149725.78;;;3.66;100.00
44926;BME280;30662;51.210;7.656;2023-03-04T13:23:00;149698.06;;;3.54;100.00
44926;BME280;30662;51.210;7.656;2023-03-04T13:28:12;149713.19;;;3.60;100.00
44926;BME280;30662;51.210;7.656;2023-03-04T13:39:24;149694.28;;;3.53;100.00
44926;BME280;30662;51.210;7.656;2023-03-04T13:41:54;149674.16;;;3.45;100.00
44926;BME280;30662;51.210;7.656;2023-03-04T13:47:20;149676.66;;;3.46;100.00
44926;BME280;30662;51.210;7.656;2023-03-04T13:49:47;149662.81;;;3.40;100.00
44926;BME280;30662;51.210;7.656;2023-03-04T13:52:38;149661.56;;;3.40;100.00
44926;BME280;30662;51.210;7.656;2023-03-04T13:55:31;149647.75;;;3.34;100.00
44926;BME280;30662;51.210;7.656;2023-03-04T13:57:58;149669.13;;;3.43;100.00
44926;BME280;30662;51.210;7.656;2023-03-04T14:00:26;149655.28;;;3.37;100.00
44926;BME280;30662;51.210;7.656;2023-03-04T14:02:53;149670.38;;;3.43;100.00
44926;BME280;30662;51.210;7.656;2023-03-04T14:05:18;149656.53;;;3.38;100.00
44926;BME280;30662;51.210;7.656;2023-03-04T14:07:44;149654.03;;;3.37;100.00
44926;BME280;30662;51.210;7.656;2023-03-04T14:12:48;149667.88;;;3.42;100.00
44926;BME280;30662;51.210;7.656;2023-03-04T14:15:29;149662.81;;;3.40;100.00
44926;BME280;30662;51.210;7.656;2023-03-04T14:17:58;149688.00;;;3.50;100.00
44926;BME280;30662;51.210;7.656;2023-03-04T14:20:26;149688.00;;;3.50;100.00
44926;BME280;30662;51.210;7.656;2023-03-04T14:22:52;149701.88;;;3.56;100.00
44926;BME280;30662;51.210;7.656;2023-03-04T14:25:25;149685.50;;;3.49;100.00
44926;BME280;30662;51.210;7.656;2023-03-04T14:28:03;149713.19;;;3.60;100.00
44926;BME280;30662;51.210;7.656;2023-03-04T14:30:30;149698.06;;;3.54;100.00
44926;BME280;30662;51.210;7.656;2023-03-04T14:33:14;149675.41;;;3.45;100.00
44926;BME280;30662;51.210;7.656;2023-03-04T14:35:46;149693.03;;;3.52;100.00
44926;BME280;30662;51.210;7.656;2023-03-04T14:38:20;149693.03;;;3.52;100.00
44926;BME280;30662;51.210;7.656;2023-03-04T14:40:52;149683.00;;;3.48;100.00